Time;durP1;ratioP1;P1;durP2;ratioP2;P2;SDS_P1;SDS_P2;PMS_P1;PMS_P2;Temp;Humidity;BMP_temperature;BMP_pressure;BME280_temperature;BME280_humidity;BME280_pressure;Samples;Min_cycle;Max_cycle;Signal;HPM_P1;HPM_P2
2023/06/03 00:00:13;;;;;;;1.90;1.30;;;23.60;70.10;;;;;;5094411;28;20811;-80
2023/06/03 00:02:40;;;;;;;1.70;1.20;;;23.60;70.20;;;;;;5094370;28;20440;-80
2023/06/03 00:05:07;;;;;;;1.60;1.40;;;23.60;70.20;;;;;;5093966;28;20459;-82
2023/06/03 00:07:34;;;;;;;2.63;1.83;;;23.60;70.20;;;;;;5093551;28;20467;-82
2023/06/03 00:10:03;;;;;;;2.50;1.60;;;23.60;70.20;;;;;;5093984;28;20442;-88
2023/06/03 00:12:30;;;;;;;1.60;1.50;;;23.60;70.10;;;;;;5093956;28;20453;-80
2023/06/03 00:14:56;;;;;;;1.90;1.63;;;23.50;70.20;;;;;;5094236;28;20497;-80
2023/06/03 00:17:26;;;;;;;2.03;1.40;;;23.60;70.30;;;;;;5093907;28;20460;-81
2023/06/03 00:19:53;;;;;;;1.60;1.33;;;23.50;70.00;;;;;;5093908;28;20447;-81
2023/06/03 00:22:21;;;;;;;1.40;1.30;;;23.60;70.40;;;;;;5093860;28;20957;-79
2023/06/03 00:24:48;;;;;;;1.90;1.37;;;23.50;70.30;;;;;;5093768;28;20546;-81
2023/06/03 00:27:16;;;;;;;2.63;1.77;;;23.60;70.40;;;;;;5093869;28;20918;-80
2023/06/03 00:29:43;;;;;;;2.23;1.43;;;23.50;70.40;;;;;;5093517;28;20451;-80
2023/06/03 00:32:10;;;;;;;4.93;1.63;;;23.60;70.40;;;;;;5093481;28;20484;-80
2023/06/03 00:34:36;;;;;;;2.10;1.90;;;23.60;70.40;;;;;;5093478;28;20473;-81
2023/06/03 00:37:04;;;;;;;2.57;1.80;;;23.50;70.40;;;;;;5093462;28;21009;-81
2023/06/03 00:39:30;;;;;;;1.47;1.37;;;23.50;70.40;;;;;;5093562;28;20438;-81
2023/06/03 00:41:58;;;;;;;1.60;1.40;;;23.50;70.40;;;;;;5093546;28;20440;-80
2023/06/03 00:44:26;;;;;;;1.47;1.30;;;23.70;70.70;;;;;;5093458;28;20531;-81
2023/06/03 00:46:54;;;;;;;1.97;1.60;;;23.50;70.40;;;;;;5093368;28;20466;-80
2023/06/03 00:49:21;;;;;;;2.60;1.20;;;23.50;70.40;;;;;;5093168;28;20445;-81
2023/06/03 00:51:48;;;;;;;3.20;2.00;;;23.50;70.40;;;;;;5093138;28;20483;-80
2023/06/03 00:54:15;;;;;;;1.33;1.23;;;23.50;70.50;;;;;;5093377;28;20432;-80
2023/06/03 00:56:44;;;;;;;1.77;1.27;;;23.50;70.60;;;;;;5093378;28;20936;-81
2023/06/03 00:59:13;;;;;;;1.53;1.43;;;23.50;70.70;;;;;;5093269;28;20440;-82
2023/06/03 01:01:42;;;;;;;1.70;1.60;;;23.50;70.80;;;;;;5093282;28;20501;-82
2023/06/03 01:04:10;;;;;;;1.57;1.47;;;23.50;70.80;;;;;;5093304;28;20854;-82
2023/06/03 01:06:45;;;;;;;1.53;1.37;;;23.50;70.90;;;;;;5093062;28;20467;-80
2023/06/03 01:09:23;;;;;;;1.80;1.50;;;23.50;70.80;;;;;;5093289;28;20443;-80
2023/06/03 01:11:59;;;;;;;1.50;1.40;;;23.50;70.90;;;;;;5093101;28;20479;-80
2023/06/03 01:14:33;;;;;;;1.70;1.60;;;23.50;71.10;;;;;;5093162;28;20442;-80
2023/06/03 01:17:09;;;;;;;2.00;1.87;;;23.50;70.80;;;;;;5093191;28;20468;-80
2023/06/03 01:19:48;;;;;;;2.13;1.67;;;23.50;71.00;;;;;;5095565;28;20460;-80
2023/06/03 01:22:16;;;;;;;1.47;1.37;;;23.50;70.90;;;;;;5097279;28;20527;-80
2023/06/03 01:24:45;;;;;;;1.63;1.20;;;23.50;70.90;;;;;;5097385;28;20444;-81
2023/06/03 01:27:12;;;;;;;1.60;1.50;;;23.50;71.20;;;;;;5096987;28;20548;-81
2023/06/03 01:29:41;;;;;;;1.97;1.27;;;23.50;71.30;;;;;;5097128;28;20837;-81
2023/06/03 01:32:10;;;;;;;1.53;1.43;;;23.40;71.20;;;;;;5096994;28;20485;-81
2023/06/03 01:34:38;;;;;;;1.93;1.33;;;23.50;71.50;;;;;;5096925;28;20432;-81
2023/06/03 01:37:06;;;;;;;2.23;1.40;;;23.50;71.70;;;;;;5096936;28;20439;-80
2023/06/03 01:39:34;;;;;;;1.73;1.53;;;23.50;72.30;;;;;;5096901;28;20892;-80
2023/06/03 01:42:02;;;;;;;2.17;1.50;;;23.50;72.00;;;;;;5096970;28;20530;-81
2023/06/03 01:44:29;;;;;;;1.40;1.30;;;23.40;71.20;;;;;;5096849;28;20440;-81
2023/06/03 01:46:56;;;;;;;1.40;1.20;;;23.40;72.00;;;;;;5096489;28;20471;-81
2023/06/03 01:49:23;;;;;;;1.50;1.40;;;23.40;71.30;;;;;;5096819;28;20439;-80
2023/06/03 01:51:50;;;;;;;1.87;1.67;;;23.50;72.00;;;;;;5096548;28;21008;-80
2023/06/03 01:54:18;;;;;;;1.50;1.30;;;23.40;71.30;;;;;;5096797;28;20450;-80
2023/06/03 01:56:45;;;;;;;1.90;1.70;;;23.40;70.80;;;;;;5096642;28;20450;-80
2023/06/03 01:59:13;;;;;;;2.00;1.47;;;23.50;71.00;;;;;;5096482;28;20448;-88
2023/06/03 02:01:43;;;;;;;1.80;1.60;;;23.50;71.70;;;;;;5096471;28;20437;-80
2023/06/03 02:04:10;;;;;;;1.50;1.20;;;23.50;71.90;;;;;;5096395;28;20435;-82
2023/06/03 02:06:37;;;;;;;1.50;1.23;;;23.50;72.30;;;;;;5096319;28;20436;-81
2023/06/03 02:09:04;;;;;;;1.63;1.53;;;23.50;71.90;;;;;;5096402;28;20864;-81
2023/06/03 02:11:31;;;;;;;1.60;1.50;;;23.50;72.30;;;;;;5096229;28;20487;-88
2023/06/03 02:13:58;;;;;;;1.70;1.50;;;23.40;72.30;;;;;;5096363;28;20444;-87
2023/06/03 02:16:26;;;;;;;1.47;1.37;;;23.40;71.10;;;;;;5095946;28;20453;-80
2023/06/03 02:18:54;;;;;;;1.50;1.40;;;23.40;70.70;;;;;;5096201;28;20443;-81
2023/06/03 02:21:21;;;;;;;1.40;1.30;;;23.40;70.90;;;;;;5096108;28;20448;-87
2023/06/03 02:23:48;;;;;;;2.03;1.60;;;23.40;70.90;;;;;;5096234;28;20539;-81
2023/06/03 02:26:15;;;;;;;1.50;1.33;;;23.40;71.20;;;;;;5096105;28;20520;-81
2023/06/03 02:28:42;;;;;;;1.47;1.37;;;23.40;71.40;;;;;;5095935;28;20485;-81
2023/06/03 02:31:10;;;;;;;1.50;1.40;;;23.40;71.30;;;;;;5095421;28;20485;-81
2023/06/03 02:33:38;;;;;;;2.20;1.70;;;23.40;71.50;;;;;;5095707;28;20872;-81
2023/06/03 02:36:07;;;;;;;1.97;1.77;;;23.40;71.30;;;;;;5095717;28;20454;-81
2023/06/03 02:38:33;;;;;;;2.17;1.67;;;23.40;71.60;;;;;;5095733;28;20801;-81
2023/06/03 02:41:00;;;;;;;1.50;1.40;;;23.40;71.50;;;;;;5095637;28;20449;-80
2023/06/03 02:43:27;;;;;;;1.50;1.40;;;23.40;71.90;;;;;;5095713;28;20440;-81
2023/06/03 02:45:54;;;;;;;1.77;1.60;;;23.40;71.10;;;;;;5095408;28;20962;-81
2023/06/03 02:48:20;;;;;;;1.50;1.30;;;23.40;71.60;;;;;;5095838;28;20443;-88
2023/06/03 02:50:49;;;;;;;1.50;1.40;;;23.40;72.60;;;;;;5095339;28;20531;-81
2023/06/03 02:53:17;;;;;;;1.40;1.27;;;23.40;72.20;;;;;;5095513;28;20441;-81
2023/06/03 02:55:45;;;;;;;1.73;1.57;;;23.40;72.50;;;;;;5095419;28;20443;-81
2023/06/03 02:58:15;;;;;;;1.60;1.33;;;23.40;73.10;;;;;;5095607;28;20432;-82
2023/06/03 03:00:42;;;;;;;1.63;1.50;;;23.40;73.70;;;;;;5095401;28;20858;-88
2023/06/03 03:03:10;;;;;;;1.40;1.30;;;23.40;74.00;;;;;;5095248;28;20443;-81
2023/06/03 03:05:38;;;;;;;1.37;1.27;;;23.40;74.00;;;;;;5095355;28;20443;-81
2023/06/03 03:08:06;;;;;;;1.33;1.20;;;23.40;74.00;;;;;;5095419;28;20527;-81
2023/06/03 03:10:33;;;;;;;1.70;1.60;;;23.40;74.10;;;;;;5095198;28;20443;-88
2023/06/03 03:13:00;;;;;;;1.50;1.40;;;23.40;74.00;;;;;;5094903;28;20488;-81
2023/06/03 03:15:27;;;;;;;1.50;1.40;;;23.40;73.90;;;;;;5095137;28;20777;-81
2023/06/03 03:17:53;;;;;;;2.30;1.50;;;23.40;74.80;;;;;;5095019;28;20440;-81
2023/06/03 03:20:20;;;;;;;1.77;1.33;;;23.40;74.00;;;;;;5094942;28;20520;-81
2023/06/03 03:22:47;;;;;;;1.23;1.13;;;23.40;73.80;;;;;;5095006;28;20444;-81
2023/06/03 03:25:15;;;;;;;1.70;1.40;;;23.40;73.80;;;;;;5094873;28;20443;-81
2023/06/03 03:27:42;;;;;;;1.60;1.50;;;23.40;73.80;;;;;;5094786;28;20444;-81
2023/06/03 03:30:10;;;;;;;1.50;1.40;;;23.40;73.70;;;;;;5094756;28;20439;-81
2023/06/03 03:32:37;;;;;;;2.80;1.40;;;23.40;73.90;;;;;;5094555;28;20495;-81
2023/06/03 03:35:14;;;;;;;1.50;1.40;;;23.30;73.60;;;;;;5094877;28;20476;-81
2023/06/03 03:37:41;;;;;;;1.67;1.40;;;23.40;73.70;;;;;;5094568;28;20786;-81
2023/06/03 03:40:17;;;;;;;1.63;1.53;;;23.30;73.50;;;;;;5094628;28;20432;-81
2023/06/03 03:42:49;;;;;;;1.50;1.23;;;23.30;73.50;;;;;;5093846;28;20438;-81
2023/06/03 03:45:18;;;;;;;1.27;1.17;;;23.40;73.50;;;;;;5094333;28;20433;-81
2023/06/03 03:47:45;;;;;;;1.80;1.43;;;23.30;73.30;;;;;;5094466;28;20436;-81
2023/06/03 03:50:34;;;;;;;1.40;1.27;;;23.30;73.30;;;;;;5094500;28;20440;-80
2023/06/03 03:53:05;;;;;;;1.90;1.67;;;23.30;73.50;;;;;;5094112;28;21380;-80
2023/06/03 03:55:38;;;;;;;1.30;1.20;;;23.30;74.30;;;;;;5094302;28;20433;-80
2023/06/03 03:58:15;;;;;;;1.50;1.37;;;23.30;73.50;;;;;;5094251;28;20437;-79
2023/06/03 04:00:43;;;;;;;2.07;1.23;;;23.30;73.30;;;;;;5094234;28;20461;-80
2023/06/03 04:03:11;;;;;;;1.97;1.30;;;23.30;73.20;;;;;;5094102;28;20502;-80
2023/06/03 04:05:38;;;;;;;1.93;1.83;;;23.30;73.20;;;;;;5094003;28;20564;-80
2023/06/03 04:08:05;;;;;;;1.43;1.10;;;23.50;73.40;;;;;;5094315;28;20485;-80
2023/06/03 04:10:33;;;;;;;1.93;1.57;;;23.30;73.30;;;;;;5094046;28;20455;-88
2023/06/03 04:13:00;;;;;;;1.20;1.00;;;23.30;73.00;;;;;;5093936;28;20508;-80
2023/06/03 04:15:33;;;;;;;1.30;1.10;;;23.30;73.10;;;;;;5093897;28;20541;-81
2023/06/03 04:18:00;;;;;;;1.40;1.30;;;23.30;73.10;;;;;;5094064;28;20929;-80
2023/06/03 04:20:44;;;;;;;1.33;1.10;;;23.30;73.10;;;;;;5093883;28;20448;-81
2023/06/03 04:23:15;;;;;;;1.70;1.40;;;23.30;72.90;;;;;;5093929;28;20846;-80
2023/06/03 04:25:43;;;;;;;1.20;1.00;;;23.30;72.90;;;;;;5093844;28;20424;-80
2023/06/03 04:28:10;;;;;;;1.20;1.00;;;23.30;72.90;;;;;;5093732;28;20450;-88
2023/06/03 04:30:39;;;;;;;2.00;1.47;;;23.30;72.80;;;;;;5093471;28;20445;-81
2023/06/03 04:33:06;;;;;;;1.40;1.30;;;23.30;72.80;;;;;;5093151;28;20500;-80
2023/06/03 04:35:33;;;;;;;1.40;1.30;;;23.30;72.80;;;;;;5092702;28;20439;-80
2023/06/03 04:38:00;;;;;;;1.43;1.20;;;23.30;72.90;;;;;;5092829;28;20929;-80
2023/06/03 04:40:27;;;;;;;1.67;1.40;;;23.30;72.80;;;;;;5092782;28;20442;-80
2023/06/03 04:42:54;;;;;;;1.33;1.23;;;23.30;72.90;;;;;;5093113;28;20439;-80
2023/06/03 04:45:23;;;;;;;1.50;1.40;;;23.30;72.90;;;;;;5092631;28;20468;-80
2023/06/03 04:47:56;;;;;;;1.30;1.20;;;23.30;73.80;;;;;;5092545;28;20852;-80
2023/06/03 04:50:24;;;;;;;2.80;1.73;;;23.30;73.00;;;;;;5092752;28;20434;-80
2023/06/03 04:52:52;;;;;;;1.70;1.60;;;23.30;73.00;;;;;;5092437;28;20512;-81
2023/06/03 04:55:18;;;;;;;1.50;1.10;;;23.30;73.70;;;;;;5092554;28;20489;-87
2023/06/03 04:57:50;;;;;;;1.70;1.10;;;23.30;73.00;;;;;;5092527;28;20531;-81
2023/06/03 05:00:19;;;;;;;1.37;1.17;;;23.30;72.90;;;;;;5092728;28;20440;-80
2023/06/03 05:02:54;;;;;;;3.20;1.20;;;23.30;72.90;;;;;;5092504;28;20995;-81
2023/06/03 05:05:23;;;;;;;1.20;1.10;;;23.30;72.80;;;;;;5092299;28;20907;-81
2023/06/03 05:07:52;;;;;;;1.90;1.40;;;23.20;72.70;;;;;;5092323;28;20431;-81
2023/06/03 05:10:18;;;;;;;1.43;1.10;;;23.30;73.00;;;;;;5092532;28;20446;-81
2023/06/03 05:12:46;;;;;;;1.30;1.10;;;23.30;72.80;;;;;;5092339;28;20483;-81
2023/06/03 05:15:13;;;;;;;1.30;1.20;;;23.20;72.70;;;;;;5092217;28;20459;-81
2023/06/03 05:17:40;;;;;;;1.20;1.10;;;23.20;72.70;;;;;;5092281;28;20443;-86
2023/06/03 05:20:08;;;;;;;7.07;1.30;;;23.30;73.60;;;;;;5091946;28;20424;-82
2023/06/03 05:22:39;;;;;;;1.73;1.40;;;23.20;73.10;;;;;;5092320;28;20462;-85
2023/06/03 05:25:07;;;;;;;1.60;1.30;;;23.20;73.40;;;;;;5092260;28;20515;-82
2023/06/03 05:27:34;;;;;;;1.40;1.30;;;23.10;73.20;;;;;;5092126;28;20443;-82
2023/06/03 05:30:01;;;;;;;1.70;1.60;;;23.20;74.60;;;;;;5092153;28;20435;-82
2023/06/03 05:32:28;;;;;;;1.27;1.10;;;23.10;73.40;;;;;;5053691;28;1094039;-83
2023/06/03 05:34:54;;;;;;;1.23;1.13;;;23.10;73.50;;;;;;5093374;28;20790;-85
2023/06/03 05:37:22;;;;;;;1.57;1.47;;;23.10;73.30;;;;;;5093111;28;20482;-82
2023/06/03 05:39:50;;;;;;;1.27;1.13;;;23.10;73.30;;;;;;5093242;28;20532;-85
2023/06/03 05:42:17;;;;;;;10.73;1.70;;;23.10;73.30;;;;;;5093124;28;20435;-83
2023/06/03 05:44:44;;;;;;;3.23;2.00;;;23.10;69.90;;;;;;5092993;28;20434;-79
2023/06/03 05:47:10;;;;;;;4.80;1.90;;;23.00;68.30;;;;;;5092545;28;20463;-88
2023/06/03 05:49:37;;;;;;;3.47;1.67;;;22.90;67.40;;;;;;5093083;28;20462;-80
2023/06/03 05:52:05;;;;;;;2.40;2.20;;;22.80;66.60;;;;;;5092703;28;20570;-81
2023/06/03 05:54:32;;;;;;;2.00;1.43;;;22.70;66.10;;;;;;5093073;28;20531;-81
2023/06/03 05:57:00;;;;;;;1.93;1.30;;;22.60;65.90;;;;;;5092726;28;20869;-83
2023/06/03 05:59:27;;;;;;;6.07;1.93;;;22.60;65.60;;;;;;5093171;28;20481;-86
2023/06/03 06:01:54;;;;;;;1.97;1.20;;;22.50;65.20;;;;;;5092919;28;20450;-84
2023/06/03 06:04:20;;;;;;;1.73;1.40;;;22.40;65.00;;;;;;5093261;28;20470;-82
2023/06/03 06:06:48;;;;;;;1.87;1.53;;;22.30;64.80;;;;;;5096406;28;20553;-82
2023/06/03 06:09:15;;;;;;;2.17;1.77;;;22.20;64.50;;;;;;5096725;28;20439;-84
2023/06/03 06:11:42;;;;;;;1.80;1.60;;;22.10;63.90;;;;;;5096440;28;20439;-84
2023/06/03 06:14:11;;;;;;;3.30;1.83;;;22.00;63.60;;;;;;5096686;28;20544;-85
2023/06/03 06:16:38;;;;;;;5.97;1.53;;;22.00;63.20;;;;;;5096189;28;20489;-84
2023/06/03 06:19:05;;;;;;;1.80;1.60;;;22.00;62.70;;;;;;5096307;28;20922;-84
2023/06/03 06:21:32;;;;;;;2.03;1.20;;;21.90;62.90;;;;;;5078406;28;20435;-86
2023/06/03 06:23:59;;;;;;;4.53;1.80;;;21.90;63.10;;;;;;5096461;28;20455;-84
2023/06/03 06:26:26;;;;;;;2.03;1.40;;;21.90;62.60;;;;;;5096331;28;20446;-84
2023/06/03 06:28:53;;;;;;;5.80;2.00;;;21.80;63.00;;;;;;5096098;28;20443;-84
2023/06/03 06:31:21;;;;;;;1.87;1.50;;;21.90;62.30;;;;;;5096305;28;20431;-84
2023/06/03 06:33:48;;;;;;;1.60;1.50;;;21.80;62.50;;;;;;5095719;28;20490;-84
2023/06/03 06:36:31;;;;;;;4.03;1.50;;;21.80;61.10;;;;;;5096073;28;20475;-84
2023/06/03 06:38:58;;;;;;;2.50;1.43;;;21.80;62.00;;;;;;5096055;28;20929;-85
2023/06/03 06:41:28;;;;;;;2.13;1.40;;;21.70;61.50;;;;;;5096005;28;20947;-85
2023/06/03 06:43:55;;;;;;;1.90;1.03;;;21.70;62.40;;;;;;5095796;28;20439;-86
2023/06/03 06:46:25;;;;;;;1.63;1.30;;;21.70;63.40;;;;;;5095880;28;20462;-86
2023/06/03 06:48:52;;;;;;;3.60;1.30;;;21.70;64.90;;;;;;5095825;28;20443;-84
2023/06/03 06:51:19;;;;;;;1.70;1.30;;;21.70;67.80;;;;;;5095509;28;20456;-85
2023/06/03 06:53:52;;;;;;;4.17;2.00;;;21.80;66.30;;;;;;5095586;28;20486;-83
2023/06/03 06:56:21;;;;;;;4.40;1.40;;;21.80;66.40;;;;;;5095616;28;20796;-84
2023/06/03 06:58:47;;;;;;;4.93;1.70;;;21.80;66.70;;;;;;5095433;28;20444;-83
2023/06/03 07:01:14;;;;;;;2.50;1.13;;;21.90;68.30;;;;;;5095621;28;20442;-84
2023/06/03 07:03:42;;;;;;;2.60;1.63;;;22.00;67.90;;;;;;5095469;28;20933;-84
2023/06/03 07:06:10;;;;;;;3.57;1.30;;;22.00;67.60;;;;;;5095165;28;21026;-83
2023/06/03 07:08:36;;;;;;;2.37;1.30;;;21.90;67.20;;;;;;5095510;28;21007;-83
2023/06/03 07:11:04;;;;;;;2.67;1.20;;;21.90;69.00;;;;;;5095212;28;20439;-84
2023/06/03 07:13:32;;;;;;;2.47;1.50;;;21.90;68.10;;;;;;5095328;28;20490;-82
2023/06/03 07:16:00;;;;;;;2.37;1.10;;;21.90;69.10;;;;;;5094032;28;20481;-82
2023/06/03 07:18:27;;;;;;;3.13;1.67;;;22.00;69.60;;;;;;5095086;28;20493;-84
2023/06/03 07:20:56;;;;;;;2.43;1.40;;;21.90;69.00;;;;;;5095230;28;20464;-85
2023/06/03 07:23:26;;;;;;;2.60;1.40;;;22.00;69.50;;;;;;5095246;28;20469;-84
2023/06/03 07:25:54;;;;;;;6.60;1.40;;;22.00;70.00;;;;;;5095489;28;20432;-85
2023/06/03 07:28:28;;;;;;;2.80;1.30;;;22.00;72.30;;;;;;5095055;28;20436;-84
2023/06/03 07:30:54;;;;;;;2.10;1.30;;;22.00;71.90;;;;;;5095371;28;20547;-83
2023/06/03 07:33:28;;;;;;;4.47;1.63;;;22.00;72.70;;;;;;5094648;28;20494;-81
2023/06/03 07:35:57;;;;;;;1.97;1.37;;;22.00;72.80;;;;;;5094681;28;20445;-82
2023/06/03 07:38:56;;;;;;;3.03;1.40;;;22.10;73.30;;;;;;5094801;28;20440;-82
2023/06/03 07:41:37;;;;;;;1.70;1.00;;;22.10;72.60;;;;;;5094733;28;20845;-86
2023/06/03 07:44:06;;;;;;;2.87;1.20;;;22.10;73.80;;;;;;5094641;28;20447;-82
2023/06/03 07:46:38;;;;;;;2.23;1.07;;;22.20;73.50;;;;;;5094514;28;20813;-83
2023/06/03 07:49:07;;;;;;;2.00;1.40;;;22.20;74.70;;;;;;5094750;28;20436;-86
2023/06/03 07:51:36;;;;;;;2.07;1.10;;;22.20;75.40;;;;;;5094412;28;20443;-81
2023/06/03 07:54:04;;;;;;;2.13;1.40;;;22.30;75.60;;;;;;5093511;28;20578;-82
2023/06/03 07:56:31;;;;;;;3.60;1.40;;;22.30;74.70;;;;;;5093523;28;20450;-82
2023/06/03 07:59:00;;;;;;;2.80;1.03;;;22.30;74.00;;;;;;5091967;28;20447;-82
2023/06/03 08:01:27;;;;;;;1.77;0.87;;;22.40;74.50;;;;;;5092027;28;20462;-79
2023/06/03 08:03:54;;;;;;;2.00;1.30;;;22.40;75.00;;;;;;5091854;28;20440;-81
2023/06/03 08:06:26;;;;;;;1.80;1.10;;;22.20;75.00;;;;;;5092029;28;20439;-79
2023/06/03 08:08:58;;;;;;;1.83;1.20;;;22.50;75.70;;;;;;5092064;28;20444;-79
2023/06/03 08:11:25;;;;;;;4.70;1.30;;;22.50;76.40;;;;;;5091850;28;20449;-79
2023/06/03 08:13:54;;;;;;;2.90;1.30;;;22.50;76.40;;;;;;5093296;28;20483;-79
2023/06/03 08:16:21;;;;;;;1.93;1.30;;;22.60;76.70;;;;;;5093897;28;20497;-80
2023/06/03 08:18:50;;;;;;;1.30;1.13;;;22.60;77.00;;;;;;5093883;28;20432;-81
2023/06/03 08:21:19;;;;;;;1.83;0.90;;;22.60;77.00;;;;;;5093719;28;20448;-86
2023/06/03 08:23:46;;;;;;;2.67;1.30;;;22.70;77.80;;;;;;5093626;28;20447;-79
2023/06/03 08:26:14;;;;;;;4.17;1.50;;;22.70;77.80;;;;;;5093641;28;20451;-79
2023/06/03 08:28:43;;;;;;;3.00;1.10;;;22.70;77.80;;;;;;5093345;28;20471;-79
2023/06/03 08:31:10;;;;;;;2.03;1.20;;;22.70;78.10;;;;;;5093644;28;20796;-80
2023/06/03 08:33:37;;;;;;;1.33;0.90;;;22.70;78.10;;;;;;5093365;28;20486;-80
2023/06/03 08:36:04;;;;;;;1.80;0.97;;;22.70;77.70;;;;;;5093499;28;20438;-79
2023/06/03 08:38:31;;;;;;;2.77;1.27;;;22.70;78.20;;;;;;5093484;28;20436;-79
2023/06/03 08:40:59;;;;;;;2.53;1.10;;;22.90;78.50;;;;;;5093554;28;20443;-79
2023/06/03 08:43:33;;;;;;;2.27;1.30;;;22.70;78.00;;;;;;5093421;28;20498;-79
2023/06/03 08:46:12;;;;;;;1.60;1.20;;;22.80;77.40;;;;;;5093305;28;20987;-79
2023/06/03 08:48:47;;;;;;;3.87;1.10;;;22.80;77.50;;;;;;5093385;28;20435;-80
2023/06/03 08:51:16;;;;;;;1.70;1.20;;;22.80;77.60;;;;;;5093642;28;20450;-79
2023/06/03 08:53:49;;;;;;;1.53;1.00;;;22.80;77.50;;;;;;5093286;28;20490;-79
2023/06/03 08:56:17;;;;;;;1.83;1.07;;;22.80;77.50;;;;;;5093257;28;20439;-80
2023/06/03 08:58:48;;;;;;;1.63;1.10;;;22.80;77.30;;;;;;5093049;28;20849;-80
2023/06/03 09:01:17;;;;;;;1.10;0.90;;;22.90;77.60;;;;;;5093293;28;20463;-83
2023/06/03 09:03:44;;;;;;;1.30;0.90;;;22.90;77.90;;;;;;5093149;28;20484;-81
2023/06/03 09:06:13;;;;;;;1.27;0.90;;;22.90;78.00;;;;;;5093204;28;20439;-81
2023/06/03 09:08:41;;;;;;;2.80;1.23;;;22.90;78.40;;;;;;5093343;28;20447;-94
2023/06/03 09:11:11;;;;;;;1.93;0.90;;;23.00;79.00;;;;;;5093281;28;20842;-81
2023/06/03 09:13:39;;;;;;;4.13;1.00;;;22.90;79.10;;;;;;5093338;28;20528;-82
2023/06/03 09:16:09;;;;;;;3.20;1.07;;;23.10;79.10;;;;;;5092940;28;20464;-84
2023/06/03 09:18:36;;;;;;;2.40;1.10;;;22.90;79.00;;;;;;5093178;28;20496;-82
2023/06/03 09:21:03;;;;;;;4.13;1.20;;;23.00;79.20;;;;;;5093008;28;20445;-81
2023/06/03 09:23:32;;;;;;;1.37;0.90;;;23.00;79.30;;;;;;5093033;28;20453;-82
2023/06/03 09:25:59;;;;;;;1.80;0.90;;;23.00;79.80;;;;;;5092947;28;20451;-94
2023/06/03 09:28:26;;;;;;;1.37;0.97;;;23.00;82.70;;;;;;5092882;28;20913;-84
2023/06/03 09:30:53;;;;;;;2.50;1.00;;;23.00;82.80;;;;;;5092972;28;20978;-82
2023/06/03 09:33:22;;;;;;;1.77;0.97;;;23.00;82.00;;;;;;5092823;28;20811;-84
2023/06/03 09:36:11;;;;;;;1.10;0.83;;;23.00;82.40;;;;;;5092897;28;20446;-82
2023/06/03 09:38:51;;;;;;;1.43;1.00;;;23.00;82.10;;;;;;5093054;28;20520;-82
2023/06/03 09:41:20;;;;;;;1.80;1.00;;;23.00;82.10;;;;;;5096475;28;20451;-83
2023/06/03 09:43:55;;;;;;;1.30;0.90;;;23.00;81.90;;;;;;5097005;28;20443;-82
2023/06/03 09:46:22;;;;;;;2.80;1.30;;;23.10;82.20;;;;;;5096817;28;20460;-83
2023/06/03 09:48:50;;;;;;;1.10;0.93;;;23.10;82.10;;;;;;5096959;28;20444;-83
2023/06/03 09:51:17;;;;;;;1.80;0.90;;;23.10;82.10;;;;;;5096735;28;20451;-84
2023/06/03 09:53:44;;;;;;;1.10;0.87;;;23.10;82.10;;;;;;5096579;28;20482;-83
2023/06/03 09:56:25;;;;;;;1.20;1.00;;;23.10;81.50;;;;;;5096811;28;20522;-91
2023/06/03 09:59:13;;;;;;;2.00;1.03;;;23.10;82.10;;;;;;5096615;28;20463;-83
2023/06/03 10:01:40;;;;;;;2.33;1.30;;;23.10;82.30;;;;;;5096887;28;20559;-84
2023/06/03 10:04:09;;;;;;;1.20;1.00;;;23.10;82.00;;;;;;5096355;28;20439;-83
2023/06/03 10:06:37;;;;;;;1.10;0.83;;;23.10;82.30;;;;;;5096509;28;20438;-84
2023/06/03 10:09:19;;;;;;;1.33;0.97;;;23.20;82.50;;;;;;5096582;28;20539;-85
2023/06/03 10:11:50;;;;;;;3.20;0.80;;;23.20;82.30;;;;;;5096405;28;20436;-83
2023/06/03 10:14:22;;;;;;;1.10;0.90;;;23.20;82.60;;;;;;5096154;28;21039;-83
2023/06/03 10:17:06;;;;;;;1.97;1.10;;;23.40;82.60;;;;;;5096237;28;20465;-83
2023/06/03 10:19:36;;;;;;;2.80;0.83;;;23.20;82.10;;;;;;5096264;28;20436;-83
2023/06/03 10:22:04;;;;;;;1.20;1.10;;;23.20;82.20;;;;;;5096149;28;20441;-83
2023/06/03 10:24:32;;;;;;;1.67;1.10;;;23.20;82.10;;;;;;5096156;28;20440;-83
2023/06/03 10:26:59;;;;;;;1.23;0.90;;;23.30;82.40;;;;;;5096359;28;20858;-83
2023/06/03 10:29:29;;;;;;;2.00;1.13;;;23.30;82.40;;;;;;5096025;28;20440;-83
2023/06/03 10:31:58;;;;;;;1.43;0.77;;;23.30;82.40;;;;;;5095992;28;20446;-84
2023/06/03 10:34:25;;;;;;;1.53;0.97;;;23.30;82.50;;;;;;5096089;28;20486;-82
2023/06/03 10:36:57;;;;;;;1.27;0.97;;;23.30;82.60;;;;;;5078001;28;20440;-89
2023/06/03 10:39:25;;;;;;;1.30;0.80;;;23.50;82.80;;;;;;5096132;28;20539;-83
2023/06/03 10:41:53;;;;;;;4.93;0.80;;;23.30;82.60;;;;;;5095713;28;20580;-83
2023/06/03 10:44:19;;;;;;;1.10;0.80;;;23.30;82.70;;;;;;5095877;28;20433;-83
2023/06/03 10:46:53;;;;;;;1.30;0.90;;;23.30;82.80;;;;;;5095243;28;20464;-83
2023/06/03 10:49:23;;;;;;;1.20;0.83;;;23.40;82.60;;;;;;5094713;28;20432;-83
2023/06/03 10:52:16;;;;;;;1.60;1.10;;;23.30;82.70;;;;;;5095052;28;20446;-83
2023/06/03 10:54:54;;;;;;;1.97;1.00;;;23.40;82.90;;;;;;5095316;28;20847;-83
2023/06/03 10:57:26;;;;;;;1.20;0.90;;;23.40;82.90;;;;;;5095540;28;20534;-83
2023/06/03 10:59:53;;;;;;;1.30;0.90;;;23.40;83.20;;;;;;5095604;28;20471;-83
2023/06/03 11:02:20;;;;;;;1.33;0.90;;;23.40;83.00;;;;;;5095049;28;20521;-83
2023/06/03 11:04:47;;;;;;;4.27;1.00;;;23.40;83.00;;;;;;5075100;28;20439;-84
2023/06/03 11:07:46;;;;;;;1.97;1.13;;;23.40;82.40;;;;;;5074962;28;20434;-86
2023/06/03 11:10:44;;;;;;;1.40;1.13;;;23.40;82.10;;;;;;5074743;28;20451;-85
2023/06/03 11:13:32;;;;;;;2.23;1.07;;;23.30;82.10;;;;;;5076246;28;20544;-85
2023/06/03 11:16:00;;;;;;;2.13;0.90;;;23.30;81.70;;;;;;5093998;28;20473;-85
2023/06/03 11:18:27;;;;;;;1.23;0.90;;;23.30;82.20;;;;;;5094999;28;20432;-86
2023/06/03 11:20:54;;;;;;;3.50;1.50;;;23.30;81.90;;;;;;5094932;28;20948;-85
2023/06/03 11:23:42;;;;;;;4.00;1.00;;;23.30;82.00;;;;;;5094586;28;20442;-84
2023/06/03 11:26:31;;;;;;;2.03;1.00;;;23.30;81.80;;;;;;5094147;28;20438;-86
2023/06/03 11:28:57;;;;;;;3.03;1.13;;;23.30;81.70;;;;;;5094833;28;20447;-82
2023/06/03 11:31:25;;;;;;;2.30;1.00;;;23.20;81.50;;;;;;5094305;28;20443;-82
2023/06/03 11:34:24;;;;;;;6.20;1.13;;;23.30;82.80;;;;;;5094592;28;20839;-96
2023/06/03 11:36:51;;;;;;;1.70;1.20;;;23.30;82.80;;;;;;5094672;28;20533;-82
2023/06/03 11:39:20;;;;;;;1.20;0.90;;;23.30;82.80;;;;;;5094736;28;20500;-83
2023/06/03 11:42:09;;;;;;;2.50;1.07;;;23.30;83.00;;;;;;5094606;28;20436;-83
2023/06/03 11:44:38;;;;;;;2.37;1.00;;;23.40;82.80;;;;;;5094558;28;20439;-82
2023/06/03 11:47:06;;;;;;;3.50;0.90;;;23.40;82.80;;;;;;5094543;28;20449;-82
2023/06/03 11:49:38;;;;;;;3.23;1.10;;;23.50;83.00;;;;;;5094471;28;20443;-95
2023/06/03 11:52:07;;;;;;;2.50;1.10;;;23.50;83.00;;;;;;5094678;28;20433;-92
2023/06/03 11:54:35;;;;;;;1.27;0.90;;;23.50;82.90;;;;;;5094354;28;20484;-82
2023/06/03 11:57:03;;;;;;;1.40;1.10;;;23.60;83.10;;;;;;5094392;28;20432;-82
2023/06/03 11:59:36;;;;;;;4.60;1.00;;;23.60;83.10;;;;;;5094299;28;20441;-87
2023/06/03 12:02:03;;;;;;;1.53;0.80;;;23.60;83.30;;;;;;5093839;28;20447;-94
2023/06/03 12:04:31;;;;;;;2.87;1.00;;;23.60;83.20;;;;;;5094174;28;20447;-82
2023/06/03 12:06:58;;;;;;;1.93;0.73;;;23.60;83.20;;;;;;5094217;28;20447;-82
2023/06/03 12:09:26;;;;;;;3.00;1.13;;;23.60;82.80;;;;;;5094367;28;20923;-82
2023/06/03 12:11:55;;;;;;;1.80;0.97;;;23.60;82.90;;;;;;5094155;28;20480;-83
2023/06/03 12:14:32;;;;;;;2.70;1.17;;;23.70;82.80;;;;;;5094054;28;20579;-83
2023/06/03 12:17:09;;;;;;;1.10;0.77;;;23.70;82.80;;;;;;5093947;28;20459;-82
2023/06/03 12:19:38;;;;;;;2.20;1.20;;;23.70;82.90;;;;;;5093960;28;20437;-82
2023/06/03 12:22:05;;;;;;;1.30;0.90;;;23.70;82.80;;;;;;5094027;28;20488;-82
2023/06/03 12:24:33;;;;;;;1.20;0.90;;;23.70;82.80;;;;;;5093722;28;20432;-82
2023/06/03 12:27:13;;;;;;;1.40;0.80;;;23.70;82.70;;;;;;5094167;28;20441;-82
2023/06/03 12:29:44;;;;;;;1.30;0.90;;;23.70;82.80;;;;;;5093927;28;20438;-82
2023/06/03 12:32:11;;;;;;;2.10;1.00;;;23.70;82.50;;;;;;5093555;28;20435;-83
2023/06/03 12:34:38;;;;;;;1.23;0.93;;;23.80;82.70;;;;;;5093474;28;20484;-83
2023/06/03 12:37:06;;;;;;;1.90;0.93;;;23.80;82.80;;;;;;5093596;28;20443;-83
2023/06/03 12:39:50;;;;;;;1.30;0.80;;;23.80;82.40;;;;;;5093571;28;20444;-88
2023/06/03 12:42:20;;;;;;;1.50;1.00;;;23.80;82.60;;;;;;5093689;28;20511;-84
2023/06/03 12:44:52;;;;;;;1.87;0.80;;;23.80;82.60;;;;;;5093243;28;20435;-81
2023/06/03 12:47:20;;;;;;;2.00;1.00;;;23.80;82.50;;;;;;5093648;28;20447;-82
2023/06/03 12:50:04;;;;;;;1.60;0.97;;;23.90;82.70;;;;;;5093467;28;20445;-82
2023/06/03 12:52:34;;;;;;;1.43;1.10;;;23.90;82.90;;;;;;5093651;28;20477;-82
2023/06/03 12:55:03;;;;;;;1.60;0.87;;;23.90;82.70;;;;;;5093394;28;20485;-87
2023/06/03 12:57:32;;;;;;;2.23;0.90;;;23.90;82.70;;;;;;5093375;28;20443;-82